createdAt,value
2023-01-21T00:01:19.915Z,47.4
2023-01-21T00:06:42.726Z,47.4
2023-01-21T00:12:04.947Z,47.4
2023-01-21T00:16:56.614Z,47.4
2023-01-21T00:22:19.120Z,47.3
2023-01-21T00:27:41.014Z,47.3
2023-01-21T00:33:06.410Z,47.3
2023-01-21T00:38:28.789Z,47.3
2023-01-21T00:43:51.232Z,47.3
2023-01-21T00:48:42.813Z,47.2
2023-01-21T00:53:49.993Z,47.2
2023-01-21T00:58:58.430Z,47.1
2023-01-21T01:04:21.498Z,47.1
2023-01-21T01:09:44.212Z,47.1
2023-01-21T01:15:07.210Z,47.1
2023-01-21T01:20:14.424Z,47.1
2023-01-21T01:25:37.263Z,47
2023-01-21T01:31:00.203Z,47
2023-01-21T01:36:23.265Z,46.9
2023-01-21T01:41:30.698Z,46.9
2023-01-21T01:46:53.519Z,46.9
2023-01-21T01:52:01.059Z,46.9
2023-01-21T01:57:23.483Z,46.8
2023-01-21T02:02:46.658Z,46.9
2023-01-21T02:08:09.781Z,47.3
2023-01-21T02:13:31.643Z,48.1
2023-01-21T02:18:54.486Z,49.1
2023-01-21T02:24:16.797Z,50.1
2023-01-21T02:29:27.896Z,51
2023-01-21T02:34:51.489Z,52.1
2023-01-21T02:39:58.218Z,53.1
2023-01-21T02:45:21.365Z,54
2023-01-21T02:50:44.770Z,55.1
2023-01-21T02:56:07.887Z,56.1
2023-01-21T03:00:59.866Z,57.1
2023-01-21T03:06:22.183Z,58
2023-01-21T03:11:29.110Z,59.1
2023-01-21T03:16:51.912Z,60
2023-01-21T03:22:14.958Z,61.1
2023-01-21T03:27:37.356Z,61.8
2023-01-21T03:33:00.576Z,61.9
2023-01-21T03:38:07.719Z,61.9
2023-01-21T03:43:15.171Z,61.9
2023-01-21T03:48:37.544Z,61.8
2023-01-21T03:53:44.633Z,61.8
2023-01-21T03:59:07.246Z,61.8
2023-01-21T04:04:14.722Z,61.8
2023-01-21T04:09:22.050Z,61.8
2023-01-21T04:14:44.947Z,61.7
2023-01-21T04:19:56.177Z,61.6
2023-01-21T04:25:06.557Z,61.6
2023-01-21T04:30:29.484Z,61.6
2023-01-21T04:35:51.850Z,61.6
2023-01-21T04:41:14.073Z,61.5
2023-01-21T04:46:37.243Z,61.4
2023-01-21T04:51:59.439Z,61.4
2023-01-21T04:57:23.025Z,61.4
2023-01-21T05:02:15.104Z,61.4
2023-01-21T05:07:38.386Z,61.3
2023-01-21T05:13:01.028Z,61.3
2023-01-21T05:18:23.755Z,61.3
2023-01-21T05:23:31.442Z,61.3
2023-01-21T05:28:53.916Z,61.2
2023-01-21T05:34:17.484Z,61.1
2023-01-21T05:39:09.086Z,61.1
2023-01-21T05:44:34.236Z,61.1
2023-01-21T05:49:57.042Z,61
2023-01-21T05:55:34.449Z,61
2023-01-21T06:00:42.020Z,60.9
2023-01-21T06:05:48.993Z,60.9
2023-01-21T06:11:11.757Z,60.9
2023-01-21T06:16:34.934Z,60.8
2023-01-21T06:21:42.406Z,60.8
2023-01-21T06:26:49.486Z,60.8
2023-01-21T06:32:13.049Z,60.7
2023-01-21T06:37:21.332Z,60.6
2023-01-21T06:42:45.020Z,60.6
2023-01-21T06:48:18.420Z,60.6
2023-01-21T06:53:25.714Z,60.5
2023-01-21T06:58:48.501Z,60.5
2023-01-21T07:04:11.298Z,60.4
2023-01-21T07:09:19.029Z,60.4
2023-01-21T07:14:26.589Z,60.4
2023-01-21T07:19:50.380Z,60.3
2023-01-21T07:24:57.695Z,60.3
2023-01-21T07:30:23.286Z,60.3
2023-01-21T07:35:46.584Z,60.2
2023-01-21T07:41:08.639Z,60.2
2023-01-21T07:46:32.971Z,60.1
2023-01-21T07:51:56.372Z,60.1
2023-01-21T07:57:18.725Z,60.1
2023-01-21T08:02:41.733Z,60
2023-01-21T08:08:04.513Z,59.9
2023-01-21T08:13:26.862Z,59.9
2023-01-21T08:18:49.435Z,59.9
2023-01-21T08:24:12.619Z,59.8
2023-01-21T08:29:35.225Z,59.8
2023-01-21T08:34:58.049Z,59.8
2023-01-21T08:40:21.239Z,59.7
2023-01-21T08:45:43.712Z,59.7
2023-01-21T08:51:07.310Z,59.7
2023-01-21T08:56:14.607Z,59.8
2023-01-21T09:01:37.477Z,59.9
2023-01-21T09:06:45.075Z,60.1
2023-01-21T09:12:07.985Z,60.1
2023-01-21T09:17:31.334Z,60.2
2023-01-21T09:22:54.288Z,60.2
2023-01-21T09:28:16.912Z,60.2
2023-01-21T09:33:24.864Z,60.1
2023-01-21T09:38:19.417Z,60.1
2023-01-21T09:43:42.504Z,60.3
2023-01-21T09:49:05.907Z,60.4
2023-01-21T09:54:28.228Z,60.8
2023-01-21T09:59:53.946Z,60.9
2023-01-21T10:05:16.415Z,60.9
2023-01-21T10:10:39.522Z,61.1
2023-01-21T10:16:02.343Z,61.3
2023-01-21T10:21:25.547Z,61.6
2023-01-21T10:26:50.588Z,62.1
2023-01-21T10:32:13.965Z,62.3
2023-01-21T10:37:08.197Z,62.3
2023-01-21T10:42:30.577Z,62.4
2023-01-21T10:47:54.593Z,62.6
2023-01-21T10:53:19.253Z,63
2023-01-21T10:58:42.567Z,63.3
2023-01-21T11:04:07.142Z,63.7
2023-01-21T11:09:14.773Z,63.9
2023-01-21T11:14:38.200Z,63.9
2023-01-21T11:20:01.451Z,64.4
2023-01-21T11:25:26.570Z,64.7
2023-01-21T11:30:37.195Z,64.9
2023-01-21T11:35:49.663Z,65.1
2023-01-21T11:41:12.952Z,65.2
2023-01-21T11:46:35.690Z,65.3
2023-01-21T11:51:59.375Z,65.3
2023-01-21T11:57:22.004Z,65.3
2023-01-21T12:02:44.213Z,65.3
2023-01-21T12:08:07.647Z,65.2
2023-01-21T12:13:32.525Z,65.2
2023-01-21T12:18:55.027Z,65.1
2023-01-21T12:24:18.627Z,65.1
2023-01-21T12:29:25.213Z,65.1
2023-01-21T12:34:48.773Z,65
2023-01-21T12:40:11.874Z,65
2023-01-21T12:45:35.085Z,64.9
2023-01-21T12:50:59.027Z,64.9
2023-01-21T12:56:23.505Z,64.9
2023-01-21T13:01:46.831Z,64.8
2023-01-21T13:07:10.297Z,64.8
2023-01-21T13:12:35.524Z,64.8
2023-01-21T13:17:43.121Z,64.7
2023-01-21T13:22:50.904Z,64.7
2023-01-21T13:28:15.668Z,64.6
2023-01-21T13:33:38.568Z,64.6
2023-01-21T13:39:01.228Z,64.5
2023-01-21T13:44:24.151Z,64.5
2023-01-21T13:49:46.930Z,64.4
2023-01-21T13:55:09.450Z,64.4
2023-01-21T14:00:32.926Z,64.3
2023-01-21T14:05:42.159Z,64.3
2023-01-21T14:11:03.960Z,64.3
2023-01-21T14:16:27.465Z,64.2
2023-01-21T14:21:35.022Z,64.2
2023-01-21T14:26:57.027Z,64.1
2023-01-21T14:32:22.231Z,64.1
2023-01-21T14:37:44.935Z,64.1
2023-01-21T14:43:10.351Z,64
2023-01-21T14:48:33.543Z,63.9
2023-01-21T14:53:56.578Z,63.9
2023-01-21T14:59:31.262Z,63.9
2023-01-21T15:04:56.014Z,63.8
2023-01-21T15:10:21.763Z,63.8
2023-01-21T15:15:45.667Z,63.7
2023-01-21T15:21:12.230Z,63.7
2023-01-21T15:26:34.275Z,63.6
2023-01-21T15:32:05.517Z,63.6
2023-01-21T15:37:29.452Z,63.5
2023-01-21T15:42:51.868Z,63.4
2023-01-21T15:48:15.636Z,63.4
2023-01-21T15:53:48.675Z,63.4
2023-01-21T15:59:11.087Z,63.3
2023-01-21T16:04:36.729Z,63.3
2023-01-21T16:09:59.883Z,63.3
2023-01-21T16:15:23.138Z,63.2
2023-01-21T16:20:48.713Z,63.1
2023-01-21T16:25:56.142Z,63.1
2023-01-21T16:31:06.806Z,63
2023-01-21T16:36:15.282Z,63
2023-01-21T16:41:38.436Z,62.9
2023-01-21T16:46:45.383Z,62.9
2023-01-21T16:52:08.417Z,62.9
2023-01-21T16:57:32.020Z,62.8
2023-01-21T17:02:55.874Z,62.8
2023-01-21T17:08:18.754Z,62.8
2023-01-21T17:13:26.736Z,62.7
2023-01-21T17:18:51.925Z,62.6
2023-01-21T17:24:15.321Z,62.6
2023-01-21T17:29:39.092Z,62.6
2023-01-21T17:34:32.193Z,62.5
2023-01-21T17:39:58.040Z,62.4
2023-01-21T17:45:21.915Z,62.4
2023-01-21T17:51:09.667Z,62.4
2023-01-21T17:56:37.919Z,62.3
2023-01-21T18:02:05.064Z,62.3
2023-01-21T18:07:17.553Z,62.2
2023-01-21T18:12:36.225Z,62.2
2023-01-21T18:18:02.676Z,62.1
2023-01-21T18:23:29.579Z,62.1
2023-01-21T18:28:55.767Z,62
2023-01-21T18:34:07.896Z,62
2023-01-21T18:39:19.453Z,61.9
2023-01-21T18:44:45.556Z,61.9
2023-01-21T18:50:13.907Z,61.9
2023-01-21T18:55:38.919Z,61.8
2023-01-21T19:01:13.963Z,61.8
2023-01-21T19:06:32.853Z,61.7
2023-01-21T19:12:01.143Z,61.7
2023-01-21T19:17:31.095Z,61.6
2023-01-21T19:23:03.797Z,61.6
2023-01-21T19:28:36.421Z,61.5
2023-01-21T19:34:07.373Z,61.4
2023-01-21T19:39:23.601Z,61.4
2023-01-21T19:45:05.269Z,61.3
2023-01-21T19:50:38.822Z,61.3
2023-01-21T19:55:55.916Z,61.3
2023-01-21T20:01:30.668Z,61.2
2023-01-21T20:07:12.059Z,61.1
2023-01-21T20:12:26.799Z,61.1
2023-01-21T20:17:54.979Z,61.1
2023-01-21T20:23:39.621Z,61
2023-01-21T20:29:08.826Z,61
2023-01-21T20:34:52.616Z,60.9
2023-01-21T20:40:17.598Z,60.9
2023-01-21T20:45:41.454Z,60.8
2023-01-21T20:51:03.000Z,60.8
2023-01-21T20:56:27.718Z,60.7
2023-01-21T21:01:38.478Z,60.7
2023-01-21T21:07:04.681Z,60.6
2023-01-21T21:12:15.250Z,60.6
2023-01-21T21:17:39.059Z,60.5
2023-01-21T21:23:02.581Z,60.5
2023-01-21T21:28:11.044Z,60.4
2023-01-21T21:33:35.426Z,60.4
2023-01-21T21:38:58.925Z,60.3
2023-01-21T21:44:22.052Z,60.3
2023-01-21T21:49:45.492Z,60.3
2023-01-21T21:54:53.642Z,60.3
2023-01-21T22:00:15.856Z,60.2
2023-01-21T22:05:39.526Z,60.1
2023-01-21T22:11:01.995Z,60.1
2023-01-21T22:16:25.347Z,60
2023-01-21T22:21:50.309Z,60
2023-01-21T22:27:12.681Z,59.9
2023-01-21T22:32:36.815Z,59.9
2023-01-21T22:37:59.957Z,59.9
2023-01-21T22:43:22.412Z,59.8
2023-01-21T22:48:46.399Z,59.8
2023-01-21T22:53:53.575Z,59.7
2023-01-21T22:59:08.323Z,59.6
2023-01-21T23:04:30.654Z,59.6
2023-01-21T23:09:54.964Z,59.6
2023-01-21T23:15:02.552Z,59.5
2023-01-21T23:20:09.852Z,59.5
2023-01-21T23:25:32.947Z,59.4
2023-01-21T23:30:40.381Z,59.4
2023-01-21T23:35:50.762Z,59.4
2023-01-21T23:41:13.548Z,59.3
2023-01-21T23:46:35.829Z,59.3
2023-01-21T23:51:59.146Z,59.2
2023-01-21T23:57:21.647Z,59.2
